createdAt,value
2019-02-15T00:00:53.508Z,782.50
2019-02-15T00:01:30.459Z,588.27
2019-02-15T00:02:06.300Z,469.50
2019-02-15T00:02:42.040Z,479.80
2019-02-15T00:03:17.860Z,537.98
2019-02-15T00:03:53.503Z,645.70
2019-02-15T00:04:29.060Z,540.35
2019-02-15T00:05:04.840Z,682.10
2019-02-15T00:05:40.459Z,592.12
2019-02-15T00:06:16.428Z,493.75
2019-02-15T00:06:51.959Z,608.90
2019-02-15T00:07:27.579Z,550.30
2019-02-15T00:08:03.241Z,641.30
2019-02-15T00:08:39.040Z,594.77
2019-02-15T00:09:14.759Z,479.80
2019-02-15T00:09:50.619Z,480.07
2019-02-15T00:10:26.391Z,458.72
2019-02-15T00:11:02.017Z,512.88
2019-02-15T00:11:37.739Z,621.35
2019-02-15T00:12:13.600Z,641.77
2019-02-15T00:12:49.349Z,709.08
2019-02-15T00:13:24.949Z,630.75
2019-02-15T00:14:00.750Z,674.92
2019-02-15T00:14:47.632Z,690.25
2019-02-15T00:15:23.347Z,503.27
2019-02-15T00:15:58.966Z,660.67
2019-02-15T00:16:34.723Z,550.60
2019-02-15T00:17:10.682Z,560.75
2019-02-15T00:18:11.208Z,729.25
2019-02-15T00:19:05.681Z,517.92
2019-02-15T00:19:44.666Z,769.90
2019-02-15T00:20:31.484Z,485.15
2019-02-15T00:21:19.114Z,380.27
2019-02-15T00:21:55.127Z,429.42
2019-02-15T00:22:30.955Z,403.70
2019-02-15T00:23:06.674Z,427.82
2019-02-15T00:23:42.502Z,353.00
2019-02-15T00:24:18.242Z,632.00
2019-02-15T00:24:55.340Z,396.43
2019-02-15T00:25:30.943Z,360.13
2019-02-15T00:26:06.690Z,426.10
2019-02-15T00:26:42.344Z,529.60
2019-02-15T00:27:17.987Z,466.73
2019-02-15T00:27:53.583Z,519.70
2019-02-15T00:28:29.242Z,527.42
2019-02-15T00:29:04.984Z,649.52
2019-02-15T00:29:40.582Z,416.40
2019-02-15T00:30:16.251Z,434.00
2019-02-15T00:30:52.083Z,553.20
2019-02-15T00:31:27.743Z,497.20
2019-02-15T00:32:03.302Z,525.77
2019-02-15T00:32:39.051Z,423.82
2019-02-15T00:33:14.731Z,431.73
2019-02-15T00:33:50.491Z,592.48
2019-02-15T00:34:26.235Z,440.23
2019-02-15T00:35:01.844Z,375.62
2019-02-15T00:35:37.607Z,379.25
2019-02-15T00:36:13.440Z,413.03
2019-02-15T00:36:49.130Z,473.07
2019-02-15T00:37:24.707Z,355.75
2019-02-15T00:38:00.248Z,352.20
2019-02-15T00:38:36.087Z,400.57
2019-02-15T00:39:11.749Z,438.75
2019-02-15T00:39:47.569Z,487.05
2019-02-15T00:40:23.299Z,502.37
2019-02-15T00:40:58.964Z,475.90
2019-02-15T00:41:34.583Z,489.27
2019-02-15T00:42:10.387Z,502.93
2019-02-15T00:42:46.175Z,485.43
2019-02-15T00:43:22.490Z,497.70
2019-02-15T00:43:58.582Z,498.70
2019-02-15T00:44:34.343Z,553.75
2019-02-15T00:45:11.250Z,538.98
2019-02-15T00:45:57.986Z,582.65
2019-02-15T00:46:39.164Z,562.45
2019-02-15T00:47:32.485Z,599.00
2019-02-15T00:48:14.985Z,536.12
2019-02-15T00:48:50.690Z,516.73
2019-02-15T00:50:00.285Z,558.15
2019-02-15T00:50:54.818Z,517.80
2019-02-15T00:51:44.021Z,436.65
2019-02-15T00:52:38.569Z,578.33
2019-02-15T00:53:29.749Z,423.40
2019-02-15T00:54:21.679Z,473.43
2019-02-15T00:55:25.679Z,481.60
2019-02-15T00:56:20.055Z,543.90
2019-02-15T00:57:17.500Z,563.20
2019-02-15T00:58:10.947Z,494.17
2019-02-15T00:59:08.082Z,433.72
2019-02-15T01:00:08.510Z,383.62
2019-02-15T01:01:01.542Z,510.48
2019-02-15T01:01:54.522Z,423.75
2019-02-15T01:02:58.180Z,568.08
2019-02-15T01:03:52.859Z,346.98
2019-02-15T01:04:45.799Z,436.05
2019-02-15T01:05:44.978Z,453.55
2019-02-15T01:06:48.479Z,364.52
2019-02-15T01:07:34.880Z,376.52
2019-02-15T01:08:20.862Z,424.90
2019-02-15T01:09:10.132Z,472.93
2019-02-15T01:09:54.332Z,304.87
2019-02-15T01:10:36.003Z,341.55
2019-02-15T01:11:22.224Z,420.68
2019-02-15T01:12:19.743Z,596.65
2019-02-15T01:13:03.570Z,470.15
2019-02-15T01:13:39.388Z,286.55
2019-02-15T01:14:15.166Z,274.27
2019-02-15T01:14:50.825Z,251.00
2019-02-15T01:15:26.446Z,249.62
2019-02-15T01:16:02.027Z,295.55
2019-02-15T01:16:37.573Z,250.13
2019-02-15T01:17:13.252Z,275.95
2019-02-15T01:17:49.009Z,273.55
2019-02-15T01:18:24.746Z,343.20
2019-02-15T01:19:00.278Z,297.70
2019-02-15T01:19:35.996Z,305.75
2019-02-15T01:20:11.754Z,196.22
2019-02-15T01:20:47.468Z,270.05
2019-02-15T01:21:23.059Z,236.03
2019-02-15T01:21:58.604Z,262.63
2019-02-15T01:22:34.165Z,282.25
2019-02-15T01:23:10.583Z,263.20
2019-02-15T01:23:46.405Z,240.95
2019-02-15T01:24:22.345Z,234.62
2019-02-15T01:24:57.996Z,261.62
2019-02-15T01:25:39.862Z,282.70
2019-02-15T01:26:23.482Z,266.17
2019-02-15T01:27:02.406Z,350.50
2019-02-15T01:27:44.591Z,314.88
2019-02-15T01:28:39.127Z,231.10
2019-02-15T01:29:45.969Z,251.42
2019-02-15T01:30:39.305Z,294.60
2019-02-15T01:31:28.927Z,309.00
2019-02-15T01:32:23.662Z,247.85
2019-02-15T01:33:27.867Z,254.00
2019-02-15T01:34:34.842Z,254.23
2019-02-15T01:35:35.242Z,246.10
2019-02-15T01:36:32.794Z,200.25
2019-02-15T01:37:29.949Z,182.22
2019-02-15T01:38:27.381Z,161.03
2019-02-15T01:39:24.620Z,211.80
2019-02-15T01:40:27.920Z,173.38
2019-02-15T01:41:20.334Z,204.40
2019-02-15T01:42:13.802Z,227.40
2019-02-15T01:43:14.218Z,263.48
2019-02-15T01:43:57.199Z,261.70
2019-02-15T01:44:42.099Z,200.57
2019-02-15T01:45:27.847Z,207.77
2019-02-15T01:46:31.739Z,220.55
2019-02-15T01:47:29.279Z,280.07
2019-02-15T01:48:04.860Z,208.13
2019-02-15T01:48:40.518Z,243.22
2019-02-15T01:49:16.319Z,222.50
2019-02-15T01:49:52.039Z,197.15
2019-02-15T01:50:28.150Z,297.05
2019-02-15T01:51:03.825Z,260.60
2019-02-15T01:51:39.461Z,204.53
2019-02-15T01:52:15.150Z,188.82
2019-02-15T01:52:50.840Z,224.07
2019-02-15T01:53:26.440Z,202.30
2019-02-15T01:54:02.008Z,235.10
2019-02-15T01:54:37.838Z,209.10
2019-02-15T01:55:13.770Z,227.75
2019-02-15T01:55:49.404Z,294.65
2019-02-15T01:56:24.948Z,192.53
2019-02-15T01:57:00.599Z,196.20
2019-02-15T01:57:36.425Z,314.23
2019-02-15T01:58:12.103Z,253.73
2019-02-15T01:58:47.825Z,238.28
2019-02-15T01:59:23.646Z,238.05
2019-02-15T01:59:59.387Z,200.72
2019-02-15T02:00:35.779Z,202.80
2019-02-15T02:01:11.420Z,262.93
2019-02-15T02:01:47.145Z,222.00
2019-02-15T02:02:24.225Z,200.78
2019-02-15T02:03:00.168Z,297.35
2019-02-15T02:03:35.998Z,230.95
2019-02-15T02:04:11.763Z,264.17
2019-02-15T02:04:47.503Z,303.07
2019-02-15T02:05:23.314Z,425.57
2019-02-15T02:05:58.891Z,333.23
2019-02-15T02:06:34.715Z,338.65
2019-02-15T02:07:10.538Z,395.12
2019-02-15T02:07:46.252Z,406.15
2019-02-15T02:08:25.216Z,430.85
2019-02-15T02:09:00.978Z,418.50
2019-02-15T02:09:37.130Z,415.73
2019-02-15T02:10:13.241Z,502.78
2019-02-15T02:10:49.102Z,338.27
2019-02-15T02:11:24.841Z,304.73
2019-02-15T02:12:00.532Z,514.05
2019-02-15T02:12:36.303Z,599.52
2019-02-15T02:13:12.046Z,480.95
2019-02-15T02:13:49.717Z,327.73
2019-02-15T02:14:24.901Z,307.00
2019-02-15T02:15:00.502Z,364.27
2019-02-15T02:15:36.222Z,281.85
2019-02-15T02:16:12.041Z,283.80
2019-02-15T02:16:47.803Z,399.65
2019-02-15T02:17:23.302Z,437.95
2019-02-15T02:17:59.090Z,531.58
2019-02-15T02:18:34.692Z,398.70
2019-02-15T02:19:10.390Z,507.43
2019-02-15T02:19:46.082Z,463.60
2019-02-15T02:20:21.582Z,398.25
2019-02-15T02:20:57.282Z,445.55
2019-02-15T02:21:32.764Z,626.60
2019-02-15T02:22:08.531Z,579.00
2019-02-15T02:22:44.348Z,300.68
2019-02-15T02:23:20.473Z,433.27
2019-02-15T02:23:56.230Z,229.50
2019-02-15T02:24:31.806Z,91.70
2019-02-15T02:25:07.585Z,110.88
2019-02-15T02:25:43.241Z,123.00
2019-02-15T02:26:18.906Z,143.25
2019-02-15T02:26:54.721Z,147.43
2019-02-15T02:27:30.548Z,98.95
2019-02-15T02:28:06.342Z,115.08
2019-02-15T02:28:42.086Z,162.72
2019-02-15T02:29:17.754Z,162.57
2019-02-15T02:29:53.428Z,180.10
2019-02-15T02:30:29.397Z,189.05
2019-02-15T02:31:05.089Z,263.60
2019-02-15T02:31:40.747Z,144.30
2019-02-15T02:32:16.392Z,134.37
2019-02-15T02:32:52.067Z,185.82
2019-02-15T02:33:27.827Z,197.32
2019-02-15T02:34:03.590Z,161.92
2019-02-15T02:34:39.388Z,249.35
2019-02-15T02:35:15.146Z,368.10
2019-02-15T02:35:50.685Z,462.12
2019-02-15T02:36:54.262Z,279.70
2019-02-15T02:37:30.031Z,165.70
2019-02-15T02:38:05.642Z,193.47
2019-02-15T02:38:41.550Z,135.70
2019-02-15T02:39:17.281Z,212.75
2019-02-15T02:39:52.981Z,284.37
2019-02-15T02:40:28.822Z,270.55
2019-02-15T02:41:04.493Z,195.87
2019-02-15T02:41:40.339Z,171.77
2019-02-15T02:42:15.880Z,186.00
2019-02-15T02:42:51.455Z,208.63
2019-02-15T02:43:27.032Z,178.78
2019-02-15T02:44:02.607Z,187.43
2019-02-15T02:44:38.375Z,155.10
2019-02-15T02:45:13.936Z,193.87
2019-02-15T02:45:49.560Z,225.10
2019-02-15T02:46:25.200Z,213.50
2019-02-15T02:47:00.842Z,266.30
2019-02-15T02:47:36.320Z,231.50
2019-02-15T02:48:12.467Z,308.02
2019-02-15T02:48:48.209Z,219.05
2019-02-15T02:49:23.765Z,181.67
2019-02-15T02:49:59.356Z,211.50
2019-02-15T02:50:35.135Z,220.67
2019-02-15T02:51:10.944Z,182.82
2019-02-15T02:51:46.739Z,173.68
2019-02-15T02:52:22.481Z,136.30
2019-02-15T02:52:58.197Z,127.35
2019-02-15T02:53:33.925Z,151.90
2019-02-15T02:54:09.525Z,169.05
2019-02-15T02:54:45.355Z,109.92
2019-02-15T02:55:21.054Z,113.52
2019-02-15T02:55:56.762Z,122.02
2019-02-15T02:56:32.663Z,127.22
2019-02-15T02:57:08.286Z,120.87
2019-02-15T02:57:43.803Z,111.68
2019-02-15T02:58:19.348Z,101.85
2019-02-15T02:58:54.945Z,112.83
2019-02-15T02:59:30.683Z,125.82
2019-02-15T03:00:06.677Z,161.22
2019-02-15T03:00:43.361Z,127.40
2019-02-15T03:01:19.091Z,156.72
2019-02-15T03:01:54.683Z,146.00
2019-02-15T03:02:30.418Z,128.35
2019-02-15T03:03:06.123Z,129.05
2019-02-15T03:03:41.860Z,150.05
2019-02-15T03:04:17.600Z,157.72
2019-02-15T03:04:53.340Z,176.87
2019-02-15T03:05:28.931Z,143.05
2019-02-15T03:06:04.544Z,133.35
2019-02-15T03:06:40.324Z,162.10
2019-02-15T03:07:16.082Z,128.40
2019-02-15T03:07:51.740Z,122.22
2019-02-15T03:08:27.368Z,158.72
2019-02-15T03:09:04.226Z,129.05
2019-02-15T03:09:39.744Z,129.70
2019-02-15T03:10:15.501Z,113.57
2019-02-15T03:10:51.219Z,176.37
2019-02-15T03:11:27.067Z,175.82
2019-02-15T03:12:02.667Z,126.35
2019-02-15T03:12:38.340Z,104.30
2019-02-15T03:13:14.110Z,120.60
2019-02-15T03:13:49.949Z,165.12
2019-02-15T03:14:25.599Z,211.35
2019-02-15T03:15:01.413Z,183.22
2019-02-15T03:15:37.088Z,149.80
2019-02-15T03:16:12.811Z,208.82
2019-02-15T03:16:48.601Z,117.13
2019-02-15T03:17:24.332Z,143.32
2019-02-15T03:17:59.986Z,148.70
2019-02-15T03:18:35.667Z,145.20
2019-02-15T03:19:11.315Z,218.27
2019-02-15T03:19:47.038Z,323.45
2019-02-15T03:20:30.972Z,334.32
2019-02-15T03:20:59.926Z,295.55
2019-02-15T03:21:35.619Z,198.97
2019-02-15T03:22:11.240Z,177.68
2019-02-15T03:22:46.892Z,156.80
2019-02-15T03:23:22.609Z,156.63
2019-02-15T03:23:58.224Z,123.13
2019-02-15T03:24:33.730Z,132.63
2019-02-15T03:25:09.522Z,141.95
2019-02-15T03:25:45.328Z,133.45
2019-02-15T03:26:20.946Z,136.92
2019-02-15T03:26:56.673Z,118.62
2019-02-15T03:27:32.409Z,114.08
2019-02-15T03:28:08.047Z,126.33
2019-02-15T03:28:43.788Z,152.97
2019-02-15T03:29:19.495Z,147.10
2019-02-15T03:29:55.249Z,178.25
2019-02-15T03:30:31.005Z,235.60
2019-02-15T03:31:06.978Z,350.55
2019-02-15T03:31:42.743Z,148.57
2019-02-15T03:32:18.427Z,173.78
2019-02-15T03:32:53.961Z,269.70
2019-02-15T03:33:29.496Z,240.95
2019-02-15T03:34:05.285Z,175.10
2019-02-15T03:34:41.039Z,195.28
2019-02-15T03:35:16.659Z,209.32
2019-02-15T03:36:03.189Z,178.23
2019-02-15T03:36:56.552Z,197.68
2019-02-15T03:37:40.047Z,175.27
2019-02-15T03:38:37.593Z,211.22
2019-02-15T03:39:41.192Z,223.05
2019-02-15T03:40:21.334Z,196.20
2019-02-15T03:41:00.354Z,226.55
2019-02-15T03:41:36.164Z,213.77
2019-02-15T03:42:14.387Z,228.35
2019-02-15T03:42:50.202Z,199.27
2019-02-15T03:43:25.717Z,223.70
2019-02-15T03:44:01.371Z,274.88
2019-02-15T03:44:37.002Z,194.67
2019-02-15T03:45:13.187Z,187.15
2019-02-15T03:45:48.881Z,234.60
2019-02-15T03:46:24.722Z,213.85
2019-02-15T03:47:00.358Z,164.20
2019-02-15T03:47:36.139Z,233.87
2019-02-15T03:48:12.020Z,496.48
2019-02-15T03:48:47.718Z,342.30
2019-02-15T03:49:23.587Z,326.65
2019-02-15T03:49:59.126Z,419.65
2019-02-15T03:50:34.985Z,280.32
2019-02-15T03:51:10.641Z,211.35
2019-02-15T03:51:46.326Z,195.35
2019-02-15T03:52:21.967Z,205.47
2019-02-15T03:52:57.826Z,230.70
2019-02-15T03:53:33.529Z,262.12
2019-02-15T03:54:09.249Z,171.72
2019-02-15T03:54:44.941Z,176.12
2019-02-15T03:55:20.669Z,173.47
2019-02-15T03:55:56.268Z,188.22
2019-02-15T03:56:32.000Z,266.05
2019-02-15T03:57:07.608Z,226.27
2019-02-15T03:57:43.785Z,172.85
2019-02-15T03:58:19.720Z,177.22
2019-02-15T03:58:55.462Z,168.57
2019-02-15T03:59:31.168Z,159.18
2019-02-15T04:00:07.707Z,147.62
2019-02-15T04:00:43.519Z,149.15
2019-02-15T04:01:19.381Z,226.42
2019-02-15T04:01:55.061Z,238.15
2019-02-15T04:02:30.962Z,301.77
2019-02-15T04:03:06.621Z,258.80
2019-02-15T04:03:42.522Z,208.47
2019-02-15T04:04:18.171Z,287.93
2019-02-15T04:04:54.635Z,223.32
2019-02-15T04:05:30.562Z,318.33
2019-02-15T04:06:06.441Z,301.58
2019-02-15T04:06:42.805Z,230.83
2019-02-15T04:07:18.442Z,303.75
2019-02-15T04:07:54.710Z,314.70
2019-02-15T04:08:30.588Z,387.63
2019-02-15T04:09:07.241Z,730.27
2019-02-15T04:09:43.962Z,481.45
2019-02-15T04:10:19.608Z,397.95
2019-02-15T04:10:55.280Z,432.43
2019-02-15T04:11:30.984Z,419.07
2019-02-15T04:12:06.544Z,277.13
2019-02-15T04:12:42.225Z,250.47
2019-02-15T04:13:17.945Z,289.45
2019-02-15T04:13:53.684Z,269.43
2019-02-15T04:14:32.952Z,541.33
2019-02-15T04:15:07.531Z,525.02
2019-02-15T04:15:43.162Z,672.92
2019-02-15T04:16:18.710Z,878.08
2019-02-15T04:16:54.315Z,647.85
2019-02-15T04:17:29.957Z,564.52
2019-02-15T04:18:05.549Z,527.02
2019-02-15T04:18:41.041Z,395.00
2019-02-15T04:19:16.702Z,363.12
2019-02-15T04:19:52.301Z,437.40
2019-02-15T04:20:27.875Z,350.52
2019-02-15T04:21:03.488Z,383.13
2019-02-15T04:21:39.132Z,267.95
2019-02-15T04:22:14.690Z,353.85
2019-02-15T04:22:50.343Z,386.27
2019-02-15T04:23:25.923Z,566.48
2019-02-15T04:24:02.218Z,428.08
2019-02-15T04:24:37.851Z,357.32
2019-02-15T04:25:13.462Z,417.83
2019-02-15T04:25:49.346Z,317.55
2019-02-15T04:26:25.005Z,386.23
2019-02-15T04:27:00.642Z,320.27
2019-02-15T04:27:36.634Z,312.45
2019-02-15T04:28:12.368Z,305.35
2019-02-15T04:28:48.153Z,194.07
2019-02-15T04:29:23.893Z,261.55
2019-02-15T04:29:59.603Z,265.73
2019-02-15T04:30:35.380Z,278.85
2019-02-15T04:31:11.533Z,265.00
2019-02-15T04:31:47.292Z,212.97
2019-02-15T04:32:22.952Z,291.98
2019-02-15T04:32:58.622Z,264.98
2019-02-15T04:33:34.818Z,241.82
2019-02-15T04:34:10.586Z,267.25
2019-02-15T04:34:46.242Z,256.60
2019-02-15T04:35:22.045Z,271.80
2019-02-15T04:35:57.829Z,252.38
2019-02-15T04:36:33.645Z,247.88
2019-02-15T04:37:09.550Z,279.63
2019-02-15T04:37:45.336Z,372.40
2019-02-15T04:38:21.052Z,353.48
2019-02-15T04:38:56.669Z,298.68
2019-02-15T04:39:32.323Z,345.23
2019-02-15T04:40:08.979Z,387.05
2019-02-15T04:40:44.518Z,460.52
2019-02-15T04:41:20.350Z,474.48
2019-02-15T04:41:56.049Z,312.65
2019-02-15T04:42:31.868Z,395.27
2019-02-15T04:43:07.579Z,354.15
2019-02-15T04:43:43.399Z,307.15
2019-02-15T04:44:19.019Z,346.10
2019-02-15T04:44:54.729Z,402.10
2019-02-15T04:45:30.425Z,304.38
2019-02-15T04:46:06.238Z,269.98
2019-02-15T04:46:42.131Z,317.30
2019-02-15T04:47:18.139Z,287.10
2019-02-15T04:47:53.727Z,260.48
2019-02-15T04:48:29.387Z,284.77
2019-02-15T04:49:05.173Z,213.15
2019-02-15T04:49:41.056Z,257.83
2019-02-15T04:50:17.037Z,284.25
2019-02-15T04:50:52.800Z,213.97
2019-02-15T04:51:28.501Z,248.30
2019-02-15T04:52:04.179Z,219.07
2019-02-15T04:52:39.813Z,235.78
2019-02-15T04:53:15.340Z,231.20
2019-02-15T04:53:50.933Z,261.85
2019-02-15T04:54:26.680Z,252.35
2019-02-15T04:55:02.360Z,351.82
2019-02-15T04:55:38.016Z,490.10
2019-02-15T04:56:13.594Z,259.95
2019-02-15T04:56:49.302Z,446.68
2019-02-15T04:57:25.102Z,304.68
2019-02-15T04:58:00.793Z,294.37
2019-02-15T04:58:36.463Z,243.05
2019-02-15T04:59:12.225Z,244.90
2019-02-15T04:59:47.979Z,301.23
2019-02-15T05:00:23.700Z,262.40
2019-02-15T05:00:59.300Z,301.10
2019-02-15T05:01:34.967Z,298.55
2019-02-15T05:02:10.466Z,337.35
2019-02-15T05:02:46.240Z,334.32
2019-02-15T05:03:21.989Z,269.10
2019-02-15T05:03:57.807Z,287.42
2019-02-15T05:04:33.569Z,383.70
2019-02-15T05:05:09.447Z,468.40
2019-02-15T05:05:44.978Z,417.68
2019-02-15T05:06:20.540Z,456.35
2019-02-15T05:06:56.211Z,504.62
2019-02-15T05:07:31.991Z,354.27
2019-02-15T05:08:07.471Z,390.77
2019-02-15T05:08:43.048Z,556.23
2019-02-15T05:09:18.588Z,398.30
2019-02-15T05:09:54.271Z,320.12
2019-02-15T05:10:29.966Z,367.50
2019-02-15T05:11:05.529Z,497.87
2019-02-15T05:11:41.281Z,324.55
2019-02-15T05:12:17.861Z,345.65
2019-02-15T05:12:53.491Z,350.18
2019-02-15T05:13:29.104Z,286.02
2019-02-15T05:14:04.803Z,303.12
2019-02-15T05:14:40.546Z,248.35
2019-02-15T05:15:16.350Z,250.35
2019-02-15T05:15:52.033Z,260.08
2019-02-15T05:16:27.544Z,305.75
2019-02-15T05:17:03.171Z,240.35
2019-02-15T05:17:38.713Z,277.80
2019-02-15T05:18:14.508Z,279.38
2019-02-15T05:18:50.227Z,296.05
2019-02-15T05:19:25.842Z,285.95
2019-02-15T05:20:01.486Z,254.78
2019-02-15T05:20:37.411Z,341.77
2019-02-15T05:21:13.064Z,279.95
2019-02-15T05:21:48.744Z,241.00
2019-02-15T05:22:24.685Z,271.85
2019-02-15T05:23:00.485Z,304.02
2019-02-15T05:23:36.144Z,282.43
2019-02-15T05:24:11.831Z,274.90
2019-02-15T05:24:47.930Z,259.10
2019-02-15T05:25:23.637Z,360.63
2019-02-15T05:25:59.393Z,449.85
2019-02-15T05:26:35.213Z,358.45
2019-02-15T05:27:10.878Z,344.60
2019-02-15T05:27:46.542Z,341.70
2019-02-15T05:28:22.318Z,413.50
2019-02-15T05:28:57.968Z,274.90
2019-02-15T05:29:33.948Z,262.05
2019-02-15T05:30:09.824Z,252.65
2019-02-15T05:30:45.626Z,254.10
2019-02-15T05:31:21.730Z,255.65
2019-02-15T05:31:57.533Z,257.50
2019-02-15T05:32:33.153Z,268.37
2019-02-15T05:33:08.655Z,284.73
2019-02-15T05:33:44.448Z,291.08
2019-02-15T05:34:20.279Z,306.25
2019-02-15T05:34:55.997Z,281.80
2019-02-15T05:35:31.822Z,437.08
2019-02-15T05:36:07.414Z,356.57
2019-02-15T05:36:42.960Z,364.45
2019-02-15T05:37:18.499Z,414.10
2019-02-15T05:37:54.161Z,367.30
2019-02-15T05:38:30.363Z,303.50
2019-02-15T05:39:08.398Z,319.75
2019-02-15T05:39:43.873Z,282.83
2019-02-15T05:40:19.614Z,208.35
2019-02-15T05:40:55.335Z,227.03
2019-02-15T05:41:30.931Z,232.47
2019-02-15T05:42:06.645Z,265.20
2019-02-15T05:42:42.382Z,239.95
2019-02-15T05:43:18.351Z,250.62
2019-02-15T05:43:54.190Z,392.80
2019-02-15T05:44:30.083Z,419.32
2019-02-15T05:45:06.065Z,238.97
2019-02-15T05:45:42.471Z,252.78
2019-02-15T05:46:18.517Z,235.97
2019-02-15T05:46:54.651Z,347.02
2019-02-15T05:47:30.872Z,311.15
2019-02-15T05:48:07.066Z,345.45
2019-02-15T05:48:43.725Z,342.75
2019-02-15T05:49:19.550Z,305.62
2019-02-15T05:49:55.747Z,303.20
2019-02-15T05:50:31.709Z,425.35
2019-02-15T05:51:07.965Z,424.62
2019-02-15T05:51:44.102Z,344.62
2019-02-15T05:52:19.983Z,316.25
2019-02-15T05:52:56.042Z,257.00
2019-02-15T05:53:32.243Z,250.28
2019-02-15T05:54:08.433Z,266.48
2019-02-15T05:54:44.901Z,224.30
2019-02-15T05:55:21.289Z,270.95
2019-02-15T05:55:57.199Z,499.52
2019-02-15T05:56:33.259Z,578.58
2019-02-15T05:57:09.706Z,532.42
2019-02-15T05:57:45.658Z,614.13
2019-02-15T05:58:21.576Z,604.17
2019-02-15T05:58:57.889Z,473.13
2019-02-15T05:59:33.916Z,547.20
2019-02-15T06:00:10.758Z,483.65
2019-02-15T06:00:46.809Z,338.62
2019-02-15T06:01:23.506Z,318.48
2019-02-15T06:01:59.556Z,311.40
2019-02-15T06:02:35.576Z,281.32
2019-02-15T06:03:13.708Z,294.07
2019-02-15T06:03:49.076Z,293.80
2019-02-15T06:04:24.716Z,322.12
2019-02-15T06:05:00.464Z,395.57
2019-02-15T06:05:36.218Z,430.55
2019-02-15T06:06:12.092Z,356.98
2019-02-15T06:06:47.750Z,443.37
2019-02-15T06:07:23.631Z,432.98
2019-02-15T06:07:59.293Z,380.65
2019-02-15T06:08:35.452Z,339.77
2019-02-15T06:09:11.162Z,308.85
2019-02-15T06:09:46.870Z,276.88
2019-02-15T06:10:22.557Z,291.23
2019-02-15T06:11:06.455Z,321.20
2019-02-15T06:11:35.620Z,280.80
2019-02-15T06:12:11.521Z,447.27
2019-02-15T06:12:47.165Z,320.23
2019-02-15T06:13:23.267Z,295.42
2019-02-15T06:13:58.993Z,198.70
2019-02-15T06:14:34.741Z,226.35
2019-02-15T06:15:15.071Z,324.65
2019-02-15T06:15:47.945Z,315.25
2019-02-15T06:16:23.675Z,245.17
2019-02-15T06:17:01.635Z,294.00
2019-02-15T06:17:36.642Z,262.27
2019-02-15T06:18:12.224Z,249.45
2019-02-15T06:18:48.803Z,271.48
2019-02-15T06:19:24.470Z,231.50
2019-02-15T06:20:00.330Z,170.72
2019-02-15T06:20:36.140Z,178.90
2019-02-15T06:21:11.785Z,171.62
2019-02-15T06:21:47.470Z,195.68
2019-02-15T06:22:23.283Z,205.45
2019-02-15T06:22:59.029Z,179.03
2019-02-15T06:23:34.694Z,220.27
2019-02-15T06:24:10.295Z,179.53
2019-02-15T06:24:46.027Z,192.05
2019-02-15T06:25:21.809Z,210.65
2019-02-15T06:25:57.664Z,200.75
2019-02-15T06:26:33.378Z,212.55
2019-02-15T06:27:09.119Z,178.80
2019-02-15T06:27:44.959Z,181.72
2019-02-15T06:28:20.568Z,308.57
2019-02-15T06:28:56.233Z,311.85
2019-02-15T06:29:32.482Z,227.35
2019-02-15T06:30:08.570Z,190.68
2019-02-15T06:30:44.183Z,235.53
2019-02-15T06:31:19.969Z,217.22
2019-02-15T06:31:55.750Z,231.78
2019-02-15T06:32:31.504Z,217.10
2019-02-15T06:33:07.321Z,212.78
2019-02-15T06:33:43.024Z,242.85
2019-02-15T06:34:18.880Z,318.90
2019-02-15T06:34:54.574Z,238.62
2019-02-15T06:35:30.352Z,228.45
2019-02-15T06:36:06.031Z,208.57
2019-02-15T06:36:41.941Z,251.90
2019-02-15T06:37:17.469Z,347.60
2019-02-15T06:37:53.327Z,336.23
2019-02-15T06:38:34.777Z,318.90
2019-02-15T06:39:08.062Z,305.83
2019-02-15T06:39:43.800Z,488.37
2019-02-15T06:40:19.587Z,340.57
2019-02-15T06:40:55.237Z,263.25
2019-02-15T06:41:30.796Z,257.80
2019-02-15T06:42:06.767Z,295.20
2019-02-15T06:42:42.483Z,278.85
2019-02-15T06:43:18.228Z,218.20
2019-02-15T06:43:53.918Z,329.55
2019-02-15T06:44:29.551Z,424.50
2019-02-15T06:45:06.003Z,561.23
2019-02-15T06:45:41.884Z,537.52
2019-02-15T06:46:18.012Z,496.25
2019-02-15T06:46:53.615Z,251.65
2019-02-15T06:47:29.215Z,351.27
2019-02-15T06:48:04.892Z,451.00
2019-02-15T06:48:40.750Z,360.85
2019-02-15T06:49:16.382Z,387.42
2019-02-15T06:49:52.000Z,266.02
2019-02-15T06:50:27.801Z,346.52
2019-02-15T06:51:03.509Z,335.93
2019-02-15T06:51:39.129Z,274.48
2019-02-15T06:52:14.778Z,337.95
2019-02-15T06:52:50.654Z,204.93
2019-02-15T06:53:26.286Z,212.68
2019-02-15T06:54:02.024Z,382.92
2019-02-15T06:54:37.782Z,548.37
2019-02-15T06:55:13.574Z,339.38
2019-02-15T06:55:49.683Z,313.25
2019-02-15T06:56:25.283Z,263.45
2019-02-15T06:57:01.022Z,232.10
2019-02-15T06:57:36.736Z,259.50
2019-02-15T06:58:12.589Z,268.40
2019-02-15T06:59:06.240Z,193.93
2019-02-15T07:00:09.945Z,248.47
2019-02-15T07:01:14.947Z,204.95
2019-02-15T07:02:09.547Z,325.27
2019-02-15T07:03:04.016Z,543.30
2019-02-15T07:03:58.599Z,285.95
2019-02-15T07:04:42.348Z,259.45
2019-02-15T07:05:26.048Z,251.60
2019-02-15T07:06:01.917Z,277.60
2019-02-15T07:06:37.619Z,241.33
2019-02-15T07:07:13.309Z,361.98
2019-02-15T07:07:49.001Z,222.52
2019-02-15T07:08:24.649Z,269.25
2019-02-15T07:09:00.516Z,252.97
2019-02-15T07:09:36.301Z,234.85
2019-02-15T07:10:12.069Z,439.93
2019-02-15T07:10:47.740Z,412.12
2019-02-15T07:11:23.449Z,424.98
2019-02-15T07:11:59.221Z,384.83
2019-02-15T07:12:35.300Z,303.85
2019-02-15T07:13:10.719Z,413.30
2019-02-15T07:13:46.452Z,384.02
2019-02-15T07:14:22.230Z,362.32
2019-02-15T07:14:58.056Z,389.50
2019-02-15T07:15:34.155Z,321.10
2019-02-15T07:16:11.201Z,434.50
2019-02-15T07:16:46.944Z,266.85
2019-02-15T07:17:22.985Z,493.55
2019-02-15T07:17:58.945Z,555.87
2019-02-15T07:18:34.842Z,487.75
2019-02-15T07:19:10.701Z,459.50
2019-02-15T07:19:46.528Z,461.98
2019-02-15T07:20:22.106Z,346.87
2019-02-15T07:20:58.042Z,283.85
2019-02-15T07:21:34.023Z,319.50
2019-02-15T07:22:09.926Z,269.95
2019-02-15T07:22:45.862Z,344.98
2019-02-15T07:23:21.665Z,306.35
2019-02-15T07:23:57.382Z,443.70
2019-02-15T07:24:33.379Z,305.60
2019-02-15T07:25:10.106Z,250.93
2019-02-15T07:25:45.804Z,336.77
2019-02-15T07:26:21.789Z,306.73
2019-02-15T07:26:57.511Z,221.72
2019-02-15T07:27:33.155Z,229.40
2019-02-15T07:28:08.917Z,257.48
2019-02-15T07:28:44.710Z,235.20
2019-02-15T07:29:20.520Z,235.32
2019-02-15T07:29:56.198Z,236.85
2019-02-15T07:30:31.818Z,214.25
2019-02-15T07:31:07.696Z,192.47
2019-02-15T07:31:43.490Z,173.93
2019-02-15T07:32:19.363Z,208.13
2019-02-15T07:32:55.239Z,200.32
2019-02-15T07:33:30.900Z,230.03
2019-02-15T07:34:06.608Z,212.05
2019-02-15T07:34:42.281Z,199.70
2019-02-15T07:35:18.059Z,183.10
2019-02-15T07:35:54.342Z,189.03
2019-02-15T07:36:31.532Z,169.28
2019-02-15T07:37:07.305Z,210.72
2019-02-15T07:37:43.376Z,212.65
2019-02-15T07:38:19.312Z,170.15
2019-02-15T07:38:55.201Z,195.07
2019-02-15T07:39:30.881Z,143.20
2019-02-15T07:40:07.403Z,157.97
2019-02-15T07:40:43.243Z,172.22
2019-02-15T07:41:19.460Z,156.47
2019-02-15T07:41:55.619Z,132.90
2019-02-15T07:42:31.907Z,156.40
2019-02-15T07:43:07.859Z,155.35
2019-02-15T07:43:43.763Z,132.15
2019-02-15T07:44:20.186Z,137.65
2019-02-15T07:44:55.988Z,130.65
2019-02-15T07:45:31.738Z,125.58
2019-02-15T07:46:07.458Z,123.35
2019-02-15T07:46:43.297Z,133.03
2019-02-15T07:47:19.140Z,140.55
2019-02-15T07:47:55.079Z,153.82
2019-02-15T07:48:30.927Z,141.43
2019-02-15T07:49:07.054Z,127.45
2019-02-15T07:49:43.152Z,130.35